sensor_id;sensor_type;location;lat;lon;timestamp;P1;durP1;ratioP1;P2;durP2;ratioP2
60726;SDS011;46577;49.004;12.120;2022-12-01T00:00:17;34.57;;;16.10;;
60726;SDS011;46577;49.004;12.120;2022-12-01T00:02:43;43.27;;;17.37;;
60726;SDS011;46577;49.004;12.120;2022-12-01T00:05:09;46.43;;;18.30;;
60726;SDS011;46577;49.004;12.120;2022-12-01T00:07:34;39.57;;;16.17;;
60726;SDS011;46577;49.004;12.120;2022-12-01T00:10:00;37.13;;;16.67;;
60726;SDS011;46577;49.004;12.120;2022-12-01T00:12:44;32.20;;;15.40;;
60726;SDS011;46577;49.004;12.120;2022-12-01T00:15:09;35.97;;;16.70;;
60726;SDS011;46577;49.004;12.120;2022-12-01T00:17:35;38.60;;;17.30;;
60726;SDS011;46577;49.004;12.120;2022-12-01T00:20:02;39.60;;;17.20;;
60726;SDS011;46577;49.004;12.120;2022-12-01T00:22:30;34.87;;;17.53;;
60726;SDS011;46577;49.004;12.120;2022-12-01T00:24:56;34.20;;;16.17;;
60726;SDS011;46577;49.004;12.120;2022-12-01T00:27:21;38.13;;;15.87;;
60726;SDS011;46577;49.004;12.120;2022-12-01T00:29:47;34.20;;;15.43;;
60726;SDS011;46577;49.004;12.120;2022-12-01T00:32:13;26.53;;;14.10;;
60726;SDS011;46577;49.004;12.120;2022-12-01T00:34:38;33.90;;;14.87;;
60726;SDS011;46577;49.004;12.120;2022-12-01T00:37:04;32.40;;;15.43;;
60726;SDS011;46577;49.004;12.120;2022-12-01T00:39:30;31.37;;;15.00;;
60726;SDS011;46577;49.004;12.120;2022-12-01T00:41:56;35.07;;;15.53;;
60726;SDS011;46577;49.004;12.120;2022-12-01T00:44:21;36.00;;;16.93;;
60726;SDS011;46577;49.004;12.120;2022-12-01T00:46:47;36.33;;;15.90;;
60726;SDS011;46577;49.004;12.120;2022-12-01T00:49:14;32.23;;;16.30;;
60726;SDS011;46577;49.004;12.120;2022-12-01T00:51:40;36.50;;;15.47;;
60726;SDS011;46577;49.004;12.120;2022-12-01T00:54:05;33.50;;;16.60;;
60726;SDS011;46577;49.004;12.120;2022-12-01T00:56:31;29.37;;;15.27;;
60726;SDS011;46577;49.004;12.120;2022-12-01T00:58:57;36.63;;;16.50;;
60726;SDS011;46577;49.004;12.120;2022-12-01T01:01:23;37.17;;;16.00;;
60726;SDS011;46577;49.004;12.120;2022-12-01T01:03:48;37.70;;;16.87;;
60726;SDS011;46577;49.004;12.120;2022-12-01T01:06:14;44.47;;;17.33;;
60726;SDS011;46577;49.004;12.120;2022-12-01T01:08:40;32.57;;;15.50;;
60726;SDS011;46577;49.004;12.120;2022-12-01T01:11:06;35.80;;;14.37;;
60726;SDS011;46577;49.004;12.120;2022-12-01T01:13:33;37.90;;;17.47;;
60726;SDS011;46577;49.004;12.120;2022-12-01T01:16:03;40.73;;;16.57;;
60726;SDS011;46577;49.004;12.120;2022-12-01T01:18:37;34.07;;;15.60;;
60726;SDS011;46577;49.004;12.120;2022-12-01T01:21:04;38.57;;;16.13;;
60726;SDS011;46577;49.004;12.120;2022-12-01T01:23:31;36.87;;;15.00;;
60726;SDS011;46577;49.004;12.120;2022-12-01T01:26:01;36.13;;;15.50;;
60726;SDS011;46577;49.004;12.120;2022-12-01T01:28:29;36.83;;;17.07;;
60726;SDS011;46577;49.004;12.120;2022-12-01T01:30:55;36.57;;;16.90;;
60726;SDS011;46577;49.004;12.120;2022-12-01T01:33:20;33.37;;;14.47;;
60726;SDS011;46577;49.004;12.120;2022-12-01T01:35:46;37.40;;;16.57;;
60726;SDS011;46577;49.004;12.120;2022-12-01T01:38:12;38.50;;;17.50;;
60726;SDS011;46577;49.004;12.120;2022-12-01T01:40:41;34.00;;;15.97;;
60726;SDS011;46577;49.004;12.120;2022-12-01T01:43:14;35.77;;;17.40;;
60726;SDS011;46577;49.004;12.120;2022-12-01T01:45:41;35.43;;;16.30;;
60726;SDS011;46577;49.004;12.120;2022-12-01T01:48:07;31.10;;;16.50;;
60726;SDS011;46577;49.004;12.120;2022-12-01T01:50:35;45.70;;;18.90;;
60726;SDS011;46577;49.004;12.120;2022-12-01T01:53:02;45.77;;;17.27;;
60726;SDS011;46577;49.004;12.120;2022-12-01T01:55:32;33.53;;;16.13;;
60726;SDS011;46577;49.004;12.120;2022-12-01T01:57:59;42.37;;;16.63;;
60726;SDS011;46577;49.004;12.120;2022-12-01T02:00:26;36.37;;;16.60;;
60726;SDS011;46577;49.004;12.120;2022-12-01T02:02:52;37.60;;;16.93;;
60726;SDS011;46577;49.004;12.120;2022-12-01T02:07:51;32.20;;;15.87;;
60726;SDS011;46577;49.004;12.120;2022-12-01T02:10:19;38.87;;;16.20;;
60726;SDS011;46577;49.004;12.120;2022-12-01T02:12:57;36.17;;;15.60;;
60726;SDS011;46577;49.004;12.120;2022-12-01T02:15:34;37.20;;;17.13;;
60726;SDS011;46577;49.004;12.120;2022-12-01T02:24:07;38.73;;;16.53;;
60726;SDS011;46577;49.004;12.120;2022-12-01T02:35:23;47.70;;;19.40;;
60726;SDS011;46577;49.004;12.120;2022-12-01T02:38:11;46.97;;;18.73;;
60726;SDS011;46577;49.004;12.120;2022-12-01T02:40:45;43.50;;;17.80;;
60726;SDS011;46577;49.004;12.120;2022-12-01T02:43:20;52.37;;;20.27;;
60726;SDS011;46577;49.004;12.120;2022-12-01T02:46:14;34.20;;;15.60;;
60726;SDS011;46577;49.004;12.120;2022-12-01T02:48:48;47.10;;;21.47;;
60726;SDS011;46577;49.004;12.120;2022-12-01T02:51:19;48.23;;;19.90;;
60726;SDS011;46577;49.004;12.120;2022-12-01T02:54:05;46.27;;;18.90;;
60726;SDS011;46577;49.004;12.120;2022-12-01T02:56:32;60.43;;;21.27;;
60726;SDS011;46577;49.004;12.120;2022-12-01T02:58:58;50.57;;;18.50;;
60726;SDS011;46577;49.004;12.120;2022-12-01T03:07:46;53.17;;;19.43;;
60726;SDS011;46577;49.004;12.120;2022-12-01T03:13:10;63.03;;;22.80;;
60726;SDS011;46577;49.004;12.120;2022-12-01T03:18:31;54.87;;;19.93;;
60726;SDS011;46577;49.004;12.120;2022-12-01T03:24:05;57.67;;;23.30;;
60726;SDS011;46577;49.004;12.120;2022-12-01T03:26:35;55.50;;;21.43;;
60726;SDS011;46577;49.004;12.120;2022-12-01T03:29:05;53.70;;;20.67;;
60726;SDS011;46577;49.004;12.120;2022-12-01T03:31:37;55.47;;;21.10;;
60726;SDS011;46577;49.004;12.120;2022-12-01T03:34:08;56.80;;;21.20;;
60726;SDS011;46577;49.004;12.120;2022-12-01T03:36:39;47.17;;;20.37;;
60726;SDS011;46577;49.004;12.120;2022-12-01T03:39:17;53.87;;;20.67;;
60726;SDS011;46577;49.004;12.120;2022-12-01T03:41:49;50.60;;;18.93;;
60726;SDS011;46577;49.004;12.120;2022-12-01T03:44:47;50.60;;;21.30;;
60726;SDS011;46577;49.004;12.120;2022-12-01T03:47:18;57.70;;;19.67;;
60726;SDS011;46577;49.004;12.120;2022-12-01T03:49:47;49.50;;;18.57;;
60726;SDS011;46577;49.004;12.120;2022-12-01T03:52:18;47.00;;;18.73;;
60726;SDS011;46577;49.004;12.120;2022-12-01T03:55:13;40.97;;;16.30;;
60726;SDS011;46577;49.004;12.120;2022-12-01T03:57:54;46.70;;;19.60;;
60726;SDS011;46577;49.004;12.120;2022-12-01T04:00:21;50.80;;;19.17;;
60726;SDS011;46577;49.004;12.120;2022-12-01T04:02:47;45.87;;;18.00;;
60726;SDS011;46577;49.004;12.120;2022-12-01T04:05:20;43.53;;;17.93;;
60726;SDS011;46577;49.004;12.120;2022-12-01T04:07:45;42.30;;;18.73;;
60726;SDS011;46577;49.004;12.120;2022-12-01T04:10:11;43.03;;;15.80;;
60726;SDS011;46577;49.004;12.120;2022-12-01T04:12:36;40.23;;;18.93;;
60726;SDS011;46577;49.004;12.120;2022-12-01T04:15:04;42.33;;;18.00;;
60726;SDS011;46577;49.004;12.120;2022-12-01T04:17:32;42.93;;;17.77;;
60726;SDS011;46577;49.004;12.120;2022-12-01T04:19:58;43.37;;;18.57;;
60726;SDS011;46577;49.004;12.120;2022-12-01T04:22:24;50.00;;;17.80;;
60726;SDS011;46577;49.004;12.120;2022-12-01T04:24:51;47.50;;;18.57;;
60726;SDS011;46577;49.004;12.120;2022-12-01T04:27:18;43.23;;;17.80;;
60726;SDS011;46577;49.004;12.120;2022-12-01T04:29:44;41.87;;;18.03;;
60726;SDS011;46577;49.004;12.120;2022-12-01T04:32:10;44.10;;;17.93;;
60726;SDS011;46577;49.004;12.120;2022-12-01T04:34:35;44.63;;;18.40;;
60726;SDS011;46577;49.004;12.120;2022-12-01T04:37:01;39.77;;;17.77;;
60726;SDS011;46577;49.004;12.120;2022-12-01T04:39:28;49.40;;;19.30;;
60726;SDS011;46577;49.004;12.120;2022-12-01T04:41:53;49.20;;;17.93;;
60726;SDS011;46577;49.004;12.120;2022-12-01T04:44:19;53.33;;;18.87;;
60726;SDS011;46577;49.004;12.120;2022-12-01T04:46:45;48.67;;;20.30;;
60726;SDS011;46577;49.004;12.120;2022-12-01T04:49:10;46.20;;;18.20;;
60726;SDS011;46577;49.004;12.120;2022-12-01T04:51:36;46.70;;;18.50;;
60726;SDS011;46577;49.004;12.120;2022-12-01T04:54:01;46.77;;;18.70;;
60726;SDS011;46577;49.004;12.120;2022-12-01T04:56:27;44.10;;;18.60;;
60726;SDS011;46577;49.004;12.120;2022-12-01T04:58:53;50.63;;;18.33;;
60726;SDS011;46577;49.004;12.120;2022-12-01T05:01:19;47.13;;;18.63;;
60726;SDS011;46577;49.004;12.120;2022-12-01T05:03:45;53.03;;;19.93;;
60726;SDS011;46577;49.004;12.120;2022-12-01T05:06:22;56.83;;;20.13;;
60726;SDS011;46577;49.004;12.120;2022-12-01T05:08:49;53.43;;;20.20;;
60726;SDS011;46577;49.004;12.120;2022-12-01T05:11:16;49.97;;;19.90;;
60726;SDS011;46577;49.004;12.120;2022-12-01T05:13:43;47.67;;;18.57;;
60726;SDS011;46577;49.004;12.120;2022-12-01T05:16:11;51.77;;;19.70;;
60726;SDS011;46577;49.004;12.120;2022-12-01T05:18:42;52.60;;;19.80;;
60726;SDS011;46577;49.004;12.120;2022-12-01T05:21:10;40.10;;;18.50;;
60726;SDS011;46577;49.004;12.120;2022-12-01T05:23:36;53.77;;;19.13;;
60726;SDS011;46577;49.004;12.120;2022-12-01T05:26:04;42.43;;;18.83;;
60726;SDS011;46577;49.004;12.120;2022-12-01T05:28:31;67.87;;;21.90;;
60726;SDS011;46577;49.004;12.120;2022-12-01T05:30:57;41.07;;;18.63;;
60726;SDS011;46577;49.004;12.120;2022-12-01T05:33:23;58.80;;;19.10;;
60726;SDS011;46577;49.004;12.120;2022-12-01T05:35:50;49.47;;;18.10;;
60726;SDS011;46577;49.004;12.120;2022-12-01T05:38:16;43.80;;;18.83;;
60726;SDS011;46577;49.004;12.120;2022-12-01T05:40:47;49.87;;;18.90;;
60726;SDS011;46577;49.004;12.120;2022-12-01T05:43:14;49.67;;;19.03;;
60726;SDS011;46577;49.004;12.120;2022-12-01T05:45:40;57.47;;;21.60;;
60726;SDS011;46577;49.004;12.120;2022-12-01T05:48:05;56.27;;;20.10;;
60726;SDS011;46577;49.004;12.120;2022-12-01T05:50:31;50.47;;;20.60;;
60726;SDS011;46577;49.004;12.120;2022-12-01T05:52:56;52.97;;;19.87;;
60726;SDS011;46577;49.004;12.120;2022-12-01T05:55:22;52.07;;;19.47;;
60726;SDS011;46577;49.004;12.120;2022-12-01T05:57:47;58.20;;;20.60;;
60726;SDS011;46577;49.004;12.120;2022-12-01T06:00:13;52.77;;;18.40;;
60726;SDS011;46577;49.004;12.120;2022-12-01T06:02:40;56.77;;;19.50;;
60726;SDS011;46577;49.004;12.120;2022-12-01T06:05:06;63.23;;;22.53;;
60726;SDS011;46577;49.004;12.120;2022-12-01T06:07:32;68.83;;;22.37;;
60726;SDS011;46577;49.004;12.120;2022-12-01T06:09:59;53.33;;;20.87;;
60726;SDS011;46577;49.004;12.120;2022-12-01T06:12:25;77.73;;;22.30;;
60726;SDS011;46577;49.004;12.120;2022-12-01T06:14:51;65.63;;;20.93;;
60726;SDS011;46577;49.004;12.120;2022-12-01T06:17:17;61.33;;;21.10;;
60726;SDS011;46577;49.004;12.120;2022-12-01T06:19:42;62.20;;;22.07;;
60726;SDS011;46577;49.004;12.120;2022-12-01T06:22:08;59.80;;;20.70;;
60726;SDS011;46577;49.004;12.120;2022-12-01T06:24:34;62.23;;;21.13;;
60726;SDS011;46577;49.004;12.120;2022-12-01T06:27:00;56.90;;;20.90;;
60726;SDS011;46577;49.004;12.120;2022-12-01T06:29:26;57.10;;;23.17;;
60726;SDS011;46577;49.004;12.120;2022-12-01T06:31:52;57.03;;;21.20;;
60726;SDS011;46577;49.004;12.120;2022-12-01T06:34:17;62.13;;;23.10;;
60726;SDS011;46577;49.004;12.120;2022-12-01T06:36:43;65.73;;;21.57;;
60726;SDS011;46577;49.004;12.120;2022-12-01T06:39:08;63.13;;;20.67;;
60726;SDS011;46577;49.004;12.120;2022-12-01T06:41:35;76.97;;;23.50;;
60726;SDS011;46577;49.004;12.120;2022-12-01T06:44:01;80.07;;;23.60;;
60726;SDS011;46577;49.004;12.120;2022-12-01T06:46:27;57.03;;;21.07;;
60726;SDS011;46577;49.004;12.120;2022-12-01T06:48:53;56.77;;;22.97;;
60726;SDS011;46577;49.004;12.120;2022-12-01T06:51:18;60.27;;;22.60;;
60726;SDS011;46577;49.004;12.120;2022-12-01T06:53:44;63.27;;;23.63;;
60726;SDS011;46577;49.004;12.120;2022-12-01T06:56:09;73.03;;;24.70;;
60726;SDS011;46577;49.004;12.120;2022-12-01T06:58:35;62.57;;;23.60;;
60726;SDS011;46577;49.004;12.120;2022-12-01T07:01:06;57.93;;;21.67;;
60726;SDS011;46577;49.004;12.120;2022-12-01T07:03:36;65.73;;;24.93;;
60726;SDS011;46577;49.004;12.120;2022-12-01T07:06:02;53.27;;;21.63;;
60726;SDS011;46577;49.004;12.120;2022-12-01T07:08:28;49.67;;;20.20;;
60726;SDS011;46577;49.004;12.120;2022-12-01T07:11:05;58.30;;;22.17;;
60726;SDS011;46577;49.004;12.120;2022-12-01T07:13:32;60.27;;;21.80;;
60726;SDS011;46577;49.004;12.120;2022-12-01T07:15:58;59.10;;;20.37;;
60726;SDS011;46577;49.004;12.120;2022-12-01T07:18:24;47.90;;;19.80;;
60726;SDS011;46577;49.004;12.120;2022-12-01T07:20:50;55.33;;;20.90;;
60726;SDS011;46577;49.004;12.120;2022-12-01T07:23:16;40.60;;;16.60;;
60726;SDS011;46577;49.004;12.120;2022-12-01T07:25:41;43.93;;;19.83;;
60726;SDS011;46577;49.004;12.120;2022-12-01T07:28:07;41.67;;;17.43;;
60726;SDS011;46577;49.004;12.120;2022-12-01T07:30:33;43.77;;;17.00;;
60726;SDS011;46577;49.004;12.120;2022-12-01T07:32:58;38.97;;;17.87;;
60726;SDS011;46577;49.004;12.120;2022-12-01T07:35:24;44.10;;;18.93;;
60726;SDS011;46577;49.004;12.120;2022-12-01T07:37:55;42.50;;;18.60;;
60726;SDS011;46577;49.004;12.120;2022-12-01T07:40:21;39.70;;;18.70;;
60726;SDS011;46577;49.004;12.120;2022-12-01T07:42:47;50.53;;;18.17;;
60726;SDS011;46577;49.004;12.120;2022-12-01T07:45:13;38.40;;;17.10;;
60726;SDS011;46577;49.004;12.120;2022-12-01T07:47:39;33.67;;;16.70;;
60726;SDS011;46577;49.004;12.120;2022-12-01T07:50:05;36.17;;;17.27;;
60726;SDS011;46577;49.004;12.120;2022-12-01T07:52:31;37.50;;;17.17;;
60726;SDS011;46577;49.004;12.120;2022-12-01T07:54:56;44.43;;;16.87;;
60726;SDS011;46577;49.004;12.120;2022-12-01T07:57:22;39.80;;;16.97;;
60726;SDS011;46577;49.004;12.120;2022-12-01T07:59:48;49.63;;;17.80;;
60726;SDS011;46577;49.004;12.120;2022-12-01T08:02:14;36.10;;;17.23;;
60726;SDS011;46577;49.004;12.120;2022-12-01T08:04:39;37.60;;;16.33;;
60726;SDS011;46577;49.004;12.120;2022-12-01T08:07:06;43.83;;;17.00;;
60726;SDS011;46577;49.004;12.120;2022-12-01T08:09:32;34.83;;;15.53;;
60726;SDS011;46577;49.004;12.120;2022-12-01T08:11:57;32.60;;;15.70;;
60726;SDS011;46577;49.004;12.120;2022-12-01T08:14:23;33.50;;;14.93;;
60726;SDS011;46577;49.004;12.120;2022-12-01T08:16:49;38.20;;;17.87;;
60726;SDS011;46577;49.004;12.120;2022-12-01T08:19:14;34.23;;;15.23;;
60726;SDS011;46577;49.004;12.120;2022-12-01T08:21:40;32.77;;;16.33;;
60726;SDS011;46577;49.004;12.120;2022-12-01T08:24:05;36.23;;;15.90;;
60726;SDS011;46577;49.004;12.120;2022-12-01T08:26:31;34.00;;;15.20;;
60726;SDS011;46577;49.004;12.120;2022-12-01T08:28:57;29.57;;;15.60;;
60726;SDS011;46577;49.004;12.120;2022-12-01T08:31:23;29.63;;;14.00;;
60726;SDS011;46577;49.004;12.120;2022-12-01T08:33:51;30.63;;;14.50;;
60726;SDS011;46577;49.004;12.120;2022-12-01T08:36:17;29.30;;;14.20;;
60726;SDS011;46577;49.004;12.120;2022-12-01T08:38:45;27.77;;;14.60;;
60726;SDS011;46577;49.004;12.120;2022-12-01T08:41:12;31.60;;;15.23;;
60726;SDS011;46577;49.004;12.120;2022-12-01T08:43:39;26.90;;;14.67;;
60726;SDS011;46577;49.004;12.120;2022-12-01T08:46:08;27.07;;;15.20;;
60726;SDS011;46577;49.004;12.120;2022-12-01T08:48:35;35.57;;;18.33;;
60726;SDS011;46577;49.004;12.120;2022-12-01T08:51:04;29.17;;;15.10;;
60726;SDS011;46577;49.004;12.120;2022-12-01T08:53:32;32.00;;;16.70;;
60726;SDS011;46577;49.004;12.120;2022-12-01T08:56:03;33.10;;;17.10;;
60726;SDS011;46577;49.004;12.120;2022-12-01T08:58:31;29.07;;;16.27;;
60726;SDS011;46577;49.004;12.120;2022-12-01T09:01:00;28.60;;;14.70;;
60726;SDS011;46577;49.004;12.120;2022-12-01T09:03:31;27.53;;;14.50;;
60726;SDS011;46577;49.004;12.120;2022-12-01T09:06:05;31.67;;;15.17;;
60726;SDS011;46577;49.004;12.120;2022-12-01T09:08:32;28.47;;;14.43;;
60726;SDS011;46577;49.004;12.120;2022-12-01T09:11:00;30.53;;;15.00;;
60726;SDS011;46577;49.004;12.120;2022-12-01T09:13:27;31.13;;;15.70;;
60726;SDS011;46577;49.004;12.120;2022-12-01T09:15:56;28.60;;;14.83;;
60726;SDS011;46577;49.004;12.120;2022-12-01T09:18:24;31.10;;;14.20;;
60726;SDS011;46577;49.004;12.120;2022-12-01T09:20:50;27.80;;;15.27;;
60726;SDS011;46577;49.004;12.120;2022-12-01T09:23:16;29.17;;;15.63;;
60726;SDS011;46577;49.004;12.120;2022-12-01T09:25:42;30.30;;;17.00;;
60726;SDS011;46577;49.004;12.120;2022-12-01T09:28:07;32.83;;;17.53;;
60726;SDS011;46577;49.004;12.120;2022-12-01T09:30:33;31.13;;;17.40;;
60726;SDS011;46577;49.004;12.120;2022-12-01T09:32:59;32.63;;;18.63;;
60726;SDS011;46577;49.004;12.120;2022-12-01T09:35:25;33.50;;;16.20;;
60726;SDS011;46577;49.004;12.120;2022-12-01T09:37:51;31.43;;;16.30;;
60726;SDS011;46577;49.004;12.120;2022-12-01T09:40:16;34.30;;;17.37;;
60726;SDS011;46577;49.004;12.120;2022-12-01T09:42:42;33.07;;;19.03;;
60726;SDS011;46577;49.004;12.120;2022-12-01T09:45:16;28.20;;;15.03;;
60726;SDS011;46577;49.004;12.120;2022-12-01T09:47:49;35.83;;;16.90;;
60726;SDS011;46577;49.004;12.120;2022-12-01T09:50:16;28.37;;;16.30;;
60726;SDS011;46577;49.004;12.120;2022-12-01T09:52:49;33.80;;;17.37;;
60726;SDS011;46577;49.004;12.120;2022-12-01T09:55:22;33.27;;;17.97;;
60726;SDS011;46577;49.004;12.120;2022-12-01T09:57:51;30.10;;;18.40;;
60726;SDS011;46577;49.004;12.120;2022-12-01T10:00:20;32.10;;;18.80;;
60726;SDS011;46577;49.004;12.120;2022-12-01T10:02:49;29.83;;;18.03;;
60726;SDS011;46577;49.004;12.120;2022-12-01T10:05:22;28.63;;;17.80;;
60726;SDS011;46577;49.004;12.120;2022-12-01T10:11:05;29.00;;;18.17;;
60726;SDS011;46577;49.004;12.120;2022-12-01T10:13:17;28.43;;;17.80;;
60726;SDS011;46577;49.004;12.120;2022-12-01T10:15:53;24.60;;;17.10;;
60726;SDS011;46577;49.004;12.120;2022-12-01T10:18:25;23.33;;;16.77;;
60726;SDS011;46577;49.004;12.120;2022-12-01T10:21:56;28.10;;;18.40;;
60726;SDS011;46577;49.004;12.120;2022-12-01T10:32:27;31.43;;;20.13;;
60726;SDS011;46577;49.004;12.120;2022-12-01T10:34:58;28.40;;;19.20;;
60726;SDS011;46577;49.004;12.120;2022-12-01T10:37:25;31.37;;;19.30;;
60726;SDS011;46577;49.004;12.120;2022-12-01T10:39:54;31.57;;;19.90;;
60726;SDS011;46577;49.004;12.120;2022-12-01T10:44:56;32.93;;;19.83;;
60726;SDS011;46577;49.004;12.120;2022-12-01T10:47:25;35.43;;;19.10;;
60726;SDS011;46577;49.004;12.120;2022-12-01T10:49:55;36.77;;;21.23;;
60726;SDS011;46577;49.004;12.120;2022-12-01T10:52:42;36.33;;;20.47;;
60726;SDS011;46577;49.004;12.120;2022-12-01T10:55:34;34.03;;;20.30;;
60726;SDS011;46577;49.004;12.120;2022-12-01T10:58:02;45.43;;;19.57;;
60726;SDS011;46577;49.004;12.120;2022-12-01T11:00:37;39.50;;;19.93;;
60726;SDS011;46577;49.004;12.120;2022-12-01T11:03:05;38.27;;;19.90;;
60726;SDS011;46577;49.004;12.120;2022-12-01T11:05:41;44.07;;;20.43;;
60726;SDS011;46577;49.004;12.120;2022-12-01T11:08:18;35.20;;;18.90;;
60726;SDS011;46577;49.004;12.120;2022-12-01T11:10:47;33.90;;;19.03;;
60726;SDS011;46577;49.004;12.120;2022-12-01T11:13:17;36.00;;;18.83;;
60726;SDS011;46577;49.004;12.120;2022-12-01T11:15:49;36.97;;;18.87;;
60726;SDS011;46577;49.004;12.120;2022-12-01T11:18:28;40.13;;;19.40;;
60726;SDS011;46577;49.004;12.120;2022-12-01T11:21:12;39.53;;;20.40;;
60726;SDS011;46577;49.004;12.120;2022-12-01T11:23:44;46.07;;;20.97;;
60726;SDS011;46577;49.004;12.120;2022-12-01T11:26:12;36.20;;;19.63;;
60726;SDS011;46577;49.004;12.120;2022-12-01T11:28:40;38.60;;;20.63;;
60726;SDS011;46577;49.004;12.120;2022-12-01T11:31:15;40.00;;;20.77;;
60726;SDS011;46577;49.004;12.120;2022-12-01T11:34:02;38.53;;;18.80;;
60726;SDS011;46577;49.004;12.120;2022-12-01T11:36:41;40.80;;;19.90;;
60726;SDS011;46577;49.004;12.120;2022-12-01T11:39:17;36.97;;;20.07;;
60726;SDS011;46577;49.004;12.120;2022-12-01T11:41:47;39.70;;;19.07;;
60726;SDS011;46577;49.004;12.120;2022-12-01T11:44:18;40.87;;;20.10;;
60726;SDS011;46577;49.004;12.120;2022-12-01T11:46:44;43.23;;;20.80;;
60726;SDS011;46577;49.004;12.120;2022-12-01T11:49:15;48.53;;;21.90;;
60726;SDS011;46577;49.004;12.120;2022-12-01T11:51:43;36.03;;;19.83;;
60726;SDS011;46577;49.004;12.120;2022-12-01T11:54:16;42.43;;;21.07;;
60726;SDS011;46577;49.004;12.120;2022-12-01T11:56:44;40.73;;;19.67;;
60726;SDS011;46577;49.004;12.120;2022-12-01T11:59:14;40.60;;;22.20;;
60726;SDS011;46577;49.004;12.120;2022-12-01T12:07:33;48.80;;;21.80;;
60726;SDS011;46577;49.004;12.120;2022-12-01T12:26:40;40.83;;;21.53;;
60726;SDS011;46577;49.004;12.120;2022-12-01T12:29:30;47.03;;;21.17;;
60726;SDS011;46577;49.004;12.120;2022-12-01T12:32:40;47.53;;;21.60;;
60726;SDS011;46577;49.004;12.120;2022-12-01T12:43:40;44.73;;;19.83;;
60726;SDS011;46577;49.004;12.120;2022-12-01T12:46:33;41.43;;;20.20;;
60726;SDS011;46577;49.004;12.120;2022-12-01T12:49:25;43.30;;;20.37;;
60726;SDS011;46577;49.004;12.120;2022-12-01T12:57:39;40.03;;;19.10;;
60726;SDS011;46577;49.004;12.120;2022-12-01T13:00:13;32.57;;;17.40;;
60726;SDS011;46577;49.004;12.120;2022-12-01T13:02:45;38.03;;;18.20;;
60726;SDS011;46577;49.004;12.120;2022-12-01T13:08:39;42.70;;;19.20;;
60726;SDS011;46577;49.004;12.120;2022-12-01T13:11:51;40.17;;;19.10;;
60726;SDS011;46577;49.004;12.120;2022-12-01T13:14:33;46.43;;;22.40;;
60726;SDS011;46577;49.004;12.120;2022-12-01T13:17:35;41.50;;;18.77;;
60726;SDS011;46577;49.004;12.120;2022-12-01T13:20:04;39.93;;;19.23;;
60726;SDS011;46577;49.004;12.120;2022-12-01T13:22:32;38.50;;;19.00;;
60726;SDS011;46577;49.004;12.120;2022-12-01T13:24:59;35.07;;;17.97;;
60726;SDS011;46577;49.004;12.120;2022-12-01T13:27:27;36.03;;;18.30;;
60726;SDS011;46577;49.004;12.120;2022-12-01T13:29:57;37.63;;;18.50;;
60726;SDS011;46577;49.004;12.120;2022-12-01T13:35:24;33.27;;;15.57;;
60726;SDS011;46577;49.004;12.120;2022-12-01T13:38:13;34.17;;;16.90;;
60726;SDS011;46577;49.004;12.120;2022-12-01T13:43:51;36.13;;;17.77;;
60726;SDS011;46577;49.004;12.120;2022-12-01T13:46:29;34.93;;;17.40;;
60726;SDS011;46577;49.004;12.120;2022-12-01T13:48:58;37.43;;;16.23;;
60726;SDS011;46577;49.004;12.120;2022-12-01T13:51:25;39.23;;;16.67;;
60726;SDS011;46577;49.004;12.120;2022-12-01T13:54:02;39.97;;;17.40;;
60726;SDS011;46577;49.004;12.120;2022-12-01T13:59:02;31.40;;;15.63;;
60726;SDS011;46577;49.004;12.120;2022-12-01T14:02:28;36.60;;;15.93;;
60726;SDS011;46577;49.004;12.120;2022-12-01T14:05:12;46.23;;;15.10;;
60726;SDS011;46577;49.004;12.120;2022-12-01T14:07:46;38.13;;;16.93;;
60726;SDS011;46577;49.004;12.120;2022-12-01T14:10:30;34.27;;;17.73;;
60726;SDS011;46577;49.004;12.120;2022-12-01T14:12:58;33.73;;;16.40;;
60726;SDS011;46577;49.004;12.120;2022-12-01T14:18:03;34.30;;;18.47;;
60726;SDS011;46577;49.004;12.120;2022-12-01T14:20:34;37.33;;;18.00;;
60726;SDS011;46577;49.004;12.120;2022-12-01T14:23:16;31.67;;;16.00;;
60726;SDS011;46577;49.004;12.120;2022-12-01T14:25:55;28.23;;;14.90;;
60726;SDS011;46577;49.004;12.120;2022-12-01T14:31:19;33.37;;;14.53;;
60726;SDS011;46577;49.004;12.120;2022-12-01T14:33:51;30.00;;;15.37;;
60726;SDS011;46577;49.004;12.120;2022-12-01T14:38:51;29.97;;;13.63;;
60726;SDS011;46577;49.004;12.120;2022-12-01T14:41:22;33.23;;;15.93;;
60726;SDS011;46577;49.004;12.120;2022-12-01T14:44:14;30.30;;;14.90;;
60726;SDS011;46577;49.004;12.120;2022-12-01T14:46:51;34.60;;;14.50;;
60726;SDS011;46577;49.004;12.120;2022-12-01T14:49:28;32.20;;;16.13;;
60726;SDS011;46577;49.004;12.120;2022-12-01T14:52:05;36.90;;;17.00;;
60726;SDS011;46577;49.004;12.120;2022-12-01T14:54:42;36.87;;;16.87;;
60726;SDS011;46577;49.004;12.120;2022-12-01T14:57:11;44.33;;;15.93;;
60726;SDS011;46577;49.004;12.120;2022-12-01T14:59:40;41.70;;;16.70;;
60726;SDS011;46577;49.004;12.120;2022-12-01T15:02:07;38.23;;;16.83;;
60726;SDS011;46577;49.004;12.120;2022-12-01T15:05:21;37.60;;;16.67;;
60726;SDS011;46577;49.004;12.120;2022-12-01T15:07:34;38.33;;;16.67;;
60726;SDS011;46577;49.004;12.120;2022-12-01T15:10:02;35.37;;;17.20;;
60726;SDS011;46577;49.004;12.120;2022-12-01T15:12:28;30.90;;;15.90;;
60726;SDS011;46577;49.004;12.120;2022-12-01T15:14:55;37.90;;;17.10;;
60726;SDS011;46577;49.004;12.120;2022-12-01T15:17:30;39.43;;;18.03;;
60726;SDS011;46577;49.004;12.120;2022-12-01T15:19:58;34.43;;;16.40;;
60726;SDS011;46577;49.004;12.120;2022-12-01T15:22:27;36.50;;;17.30;;
60726;SDS011;46577;49.004;12.120;2022-12-01T15:25:05;32.50;;;16.90;;
60726;SDS011;46577;49.004;12.120;2022-12-01T15:27:41;38.23;;;18.03;;
60726;SDS011;46577;49.004;12.120;2022-12-01T15:30:14;35.70;;;17.10;;
60726;SDS011;46577;49.004;12.120;2022-12-01T15:32:40;32.43;;;16.30;;
60726;SDS011;46577;49.004;12.120;2022-12-01T15:35:18;35.20;;;17.60;;
60726;SDS011;46577;49.004;12.120;2022-12-01T15:37:46;39.30;;;18.20;;
60726;SDS011;46577;49.004;12.120;2022-12-01T15:40:15;44.13;;;18.80;;
60726;SDS011;46577;49.004;12.120;2022-12-01T15:42:42;46.97;;;18.60;;
60726;SDS011;46577;49.004;12.120;2022-12-01T15:53:02;38.27;;;18.50;;
60726;SDS011;46577;49.004;12.120;2022-12-01T15:55:44;40.53;;;20.03;;
60726;SDS011;46577;49.004;12.120;2022-12-01T15:58:17;43.90;;;19.67;;
60726;SDS011;46577;49.004;12.120;2022-12-01T16:00:51;39.67;;;17.80;;
60726;SDS011;46577;49.004;12.120;2022-12-01T16:03:21;36.20;;;19.60;;
60726;SDS011;46577;49.004;12.120;2022-12-01T16:05:47;42.63;;;19.80;;
60726;SDS011;46577;49.004;12.120;2022-12-01T16:08:20;36.10;;;19.13;;
60726;SDS011;46577;49.004;12.120;2022-12-01T16:13:55;58.07;;;20.63;;
60726;SDS011;46577;49.004;12.120;2022-12-01T16:16:46;39.27;;;18.30;;
60726;SDS011;46577;49.004;12.120;2022-12-01T16:24:10;37.20;;;18.70;;